createdAt,value
2019-04-23T00:04:16.637Z,98542.06
2019-04-23T00:09:27.689Z,98538.00
2019-04-23T00:14:45.991Z,98528.83
2019-04-23T00:19:51.464Z,98529.31
2019-04-23T00:30:04.376Z,98515.32
2019-04-23T00:35:13.647Z,98509.69
2019-04-23T00:40:25.823Z,98502.13
2019-04-23T00:45:39.839Z,98492.50
2019-04-23T00:50:54.250Z,98485.40
2019-04-23T00:55:55.664Z,98492.57
2019-04-23T01:01:00.382Z,98488.37
2019-04-23T01:06:12.957Z,98483.67
2019-04-23T01:11:20.772Z,98474.95
2019-04-23T01:16:28.605Z,98473.56
2019-04-23T01:21:26.439Z,98465.90
2019-04-23T01:27:33.662Z,98467.09
2019-04-23T01:32:27.045Z,98460.11
2019-04-23T01:37:36.741Z,98446.84
2019-04-23T01:47:54.858Z,98442.59
2019-04-23T01:53:13.780Z,98427.63
2019-04-23T01:58:25.848Z,98426.44
2019-04-23T02:03:28.014Z,98421.17
2019-04-23T02:08:32.157Z,98416.81
2019-04-23T02:13:49.054Z,98417.00
2019-04-23T02:18:59.554Z,98413.96
2019-04-23T02:24:11.967Z,98414.17
2019-04-23T02:29:28.718Z,98409.22
2019-04-23T02:39:49.812Z,98392.84
2019-04-23T02:44:45.422Z,98387.77
2019-04-23T02:50:14.055Z,98379.62
2019-04-23T02:55:10.790Z,98379.49
2019-04-23T03:05:32.941Z,98370.00
2019-04-23T03:16:06.328Z,98358.33
2019-04-23T03:21:54.349Z,98352.98
2019-04-23T03:42:17.821Z,98345.11
2019-04-23T03:52:44.623Z,98338.27
2019-04-23T03:57:43.386Z,98330.06
2019-04-23T04:03:10.281Z,98332.20
2019-04-23T04:08:13.251Z,98324.60
2019-04-23T04:13:15.854Z,98321.36
2019-04-23T04:18:38.838Z,98312.89
2019-04-23T04:29:01.722Z,98309.44
2019-04-23T04:34:11.654Z,98314.92
2019-04-23T04:39:22.580Z,98309.14
2019-04-23T04:44:27.192Z,98305.16
2019-04-23T04:49:21.471Z,98307.52
2019-04-23T04:54:22.653Z,98307.89
2019-04-23T04:59:45.679Z,98302.41
2019-04-23T05:05:02.266Z,98302.56
2019-04-23T05:10:21.701Z,98290.16
2019-04-23T05:20:14.657Z,98282.27
2019-04-23T05:25:17.644Z,98294.16
2019-04-23T05:30:34.712Z,98279.48
2019-04-23T05:36:04.782Z,98278.18
2019-04-23T05:45:55.882Z,98263.77
2019-04-23T05:51:10.949Z,98258.59
2019-04-23T05:56:13.244Z,98266.83
2019-04-23T06:11:56.990Z,98257.97
2019-04-23T06:17:01.979Z,98255.53
2019-04-23T06:27:21.218Z,98251.51
2019-04-23T06:32:22.903Z,98241.64
2019-04-23T06:37:49.541Z,98237.79
2019-04-23T06:42:59.132Z,98218.22
2019-04-23T06:48:15.442Z,98217.11
2019-04-23T06:53:12.621Z,98211.29
2019-04-23T07:09:05.368Z,98206.02
2019-04-23T07:13:55.826Z,98191.36
2019-04-23T07:19:04.997Z,98192.92
2019-04-23T07:24:08.646Z,98189.02
2019-04-23T07:34:32.024Z,98174.77
2019-04-23T07:39:57.117Z,98177.97
2019-04-23T07:45:10.403Z,98175.20
2019-04-23T07:55:36.287Z,98153.62
2019-04-23T08:05:42.537Z,98153.30
2019-04-23T08:16:32.982Z,98144.56
2019-04-23T08:21:32.062Z,98147.81
2019-04-23T08:42:32.593Z,98127.95
2019-04-23T08:52:39.582Z,98111.30
2019-04-23T08:57:45.219Z,98112.67
2019-04-23T09:03:05.676Z,98105.91
2019-04-23T09:08:15.012Z,98096.38
2019-04-23T09:18:26.211Z,98104.13
2019-04-23T09:23:45.110Z,98102.68
2019-04-23T09:34:11.421Z,98079.92
2019-04-23T09:39:34.693Z,98077.44
2019-04-23T09:45:03.830Z,98084.09
2019-04-23T09:50:15.349Z,98104.36
2019-04-23T10:00:37.942Z,98107.23
2019-04-23T10:05:25.107Z,98082.71
2019-04-23T10:10:22.727Z,98083.82
2019-04-23T10:15:34.947Z,98075.56
2019-04-23T10:20:40.340Z,98071.67
2019-04-23T10:25:48.075Z,98064.47
2019-04-23T10:30:56.560Z,98084.16
2019-04-23T10:36:09.391Z,98065.07
2019-04-23T10:41:14.159Z,98058.49
2019-04-23T10:47:11.528Z,98058.39
2019-04-23T10:52:26.463Z,98045.57
2019-04-23T10:57:25.296Z,98061.97
2019-04-23T11:02:40.244Z,98041.00
2019-04-23T11:07:33.979Z,98045.41
2019-04-23T11:13:10.702Z,98035.64
2019-04-23T11:18:02.996Z,98034.41
2019-04-23T11:23:22.413Z,98014.11
2019-04-23T11:28:33.238Z,97998.68
2019-04-23T11:33:47.342Z,98025.23
2019-04-23T11:38:56.225Z,98000.39
2019-04-23T11:44:52.953Z,98014.25
2019-04-23T11:49:26.629Z,98006.89
2019-04-23T11:54:17.496Z,98023.59
2019-04-23T11:59:36.410Z,98009.16
2019-04-23T12:05:13.247Z,98005.67
2019-04-23T12:10:22.981Z,98012.42
2019-04-23T12:25:45.762Z,98026.14
2019-04-23T12:31:00.801Z,98036.68
2019-04-23T12:36:28.623Z,98028.22
2019-04-23T12:41:31.941Z,98029.09
2019-04-23T12:51:56.083Z,98007.16
2019-04-23T12:57:04.806Z,98012.53
2019-04-23T13:07:29.148Z,98007.16
2019-04-23T13:12:38.135Z,98012.88
2019-04-23T13:22:49.305Z,98022.25
2019-04-23T13:28:02.804Z,98011.09
2019-04-23T13:33:08.405Z,98019.72
2019-04-23T13:38:21.521Z,98007.16
2019-04-23T13:43:29.648Z,98010.15
2019-04-23T13:48:24.933Z,98011.17
2019-04-23T13:58:51.364Z,98007.80
2019-04-23T14:04:24.064Z,98000.30
2019-04-23T14:09:11.710Z,97988.08
2019-04-23T14:14:38.168Z,97993.55
2019-04-23T14:19:31.949Z,97999.66
2019-04-23T14:24:54.610Z,97991.76
2019-04-23T14:29:55.953Z,97990.02
2019-04-23T14:40:20.053Z,97984.52
2019-04-23T14:45:57.830Z,97992.57
2019-04-23T14:55:58.120Z,98005.78
2019-04-23T15:01:16.049Z,97995.89
2019-04-23T15:06:26.276Z,98006.77
2019-04-23T15:11:38.817Z,97999.19
2019-04-23T15:16:31.773Z,98018.09
2019-04-23T15:37:21.876Z,98020.09
2019-04-23T15:42:23.095Z,98021.19
2019-04-23T15:47:28.227Z,98031.30
2019-04-23T15:58:05.442Z,98012.03
2019-04-23T16:02:24.562Z,98009.66
2019-04-23T16:07:51.902Z,98017.78
2019-04-23T16:13:13.326Z,98025.89
2019-04-23T16:18:35.195Z,98017.18
2019-04-23T16:23:42.217Z,98020.87
2019-04-23T16:29:08.321Z,98030.60
2019-04-23T16:39:16.913Z,98038.34
2019-04-23T16:44:40.433Z,98015.39
2019-04-23T16:49:42.183Z,98010.92
2019-04-23T17:00:17.140Z,98019.17
2019-04-23T17:05:16.202Z,98016.55
2019-04-23T17:15:28.116Z,98009.02
2019-04-23T17:20:41.308Z,98008.37
2019-04-23T17:25:41.736Z,98015.66
2019-04-23T17:31:15.431Z,97999.52
2019-04-23T17:36:34.897Z,98004.91
2019-04-23T17:42:05.220Z,98005.80
2019-04-23T17:47:13.415Z,98010.84
2019-04-23T17:52:26.263Z,98016.80
2019-04-23T17:57:28.387Z,98022.89
2019-04-23T18:02:59.901Z,98011.98
2019-04-23T18:12:57.595Z,98022.67
2019-04-23T18:18:10.098Z,98024.70
2019-04-23T18:28:30.169Z,98029.27
2019-04-23T18:38:59.279Z,98022.75
2019-04-23T18:44:21.490Z,98044.77
2019-04-23T18:49:28.204Z,98030.58
2019-04-23T18:54:37.030Z,98035.11
2019-04-23T18:59:57.124Z,98034.36
2019-04-23T19:10:33.699Z,98041.16
2019-04-23T19:21:08.045Z,98047.64
2019-04-23T19:25:57.763Z,98050.47
2019-04-23T19:31:33.941Z,98063.43
2019-04-23T19:36:49.296Z,98059.59
2019-04-23T19:41:57.586Z,98066.48
2019-04-23T19:57:12.638Z,98056.86
2019-04-23T20:02:33.847Z,98057.68
2019-04-23T20:07:43.785Z,98074.14
2019-04-23T20:12:40.413Z,98068.84
2019-04-23T20:17:53.107Z,98072.43
2019-04-23T20:23:04.537Z,98055.48
2019-04-23T20:28:24.601Z,98066.73
2019-04-23T20:34:19.656Z,98055.03
2019-04-23T20:39:02.647Z,98066.38
2019-04-23T20:44:02.093Z,98067.91
2019-04-23T20:49:07.318Z,98062.88
2019-04-23T20:54:18.582Z,98062.69
2019-04-23T20:59:35.893Z,98059.56
2019-04-23T21:04:42.601Z,98040.11
2019-04-23T21:10:00.951Z,98038.54
2019-04-23T21:15:05.690Z,98035.39
2019-04-23T21:20:19.572Z,98027.63
2019-04-23T21:25:14.730Z,98028.75
2019-04-23T21:36:18.371Z,98037.10
2019-04-23T21:41:46.671Z,98025.95
2019-04-23T21:46:53.573Z,98020.72
2019-04-23T21:56:54.058Z,98022.56
2019-04-23T22:07:18.939Z,98020.46
2019-04-23T22:12:23.237Z,98018.36
2019-04-23T22:17:41.257Z,98006.22
2019-04-23T22:22:59.480Z,97991.11
2019-04-23T22:27:54.535Z,98004.70
2019-04-23T22:38:17.012Z,98002.39
2019-04-23T22:43:20.591Z,97999.16
2019-04-23T22:48:46.135Z,97998.09
2019-04-23T22:53:52.253Z,97990.44
2019-04-23T22:59:11.951Z,97986.89
2019-04-23T23:04:24.329Z,97989.66
2019-04-23T23:09:26.979Z,97997.59
2019-04-23T23:14:35.302Z,97995.33
2019-04-23T23:19:51.908Z,97985.83
2019-04-23T23:24:59.612Z,97980.22
2019-04-23T23:30:02.785Z,97976.05
2019-04-23T23:40:22.156Z,97975.00
2019-04-23T23:45:25.340Z,97971.13
2019-04-23T23:55:52.055Z,97968.24
